sensor_id;sensor_type;location;lat;lon;timestamp;temperature;humidity
54540;SHT30;40438;52.992;18.604;2023-08-17T00:00:29;22.74;55.35
54540;SHT30;40438;52.992;18.604;2023-08-17T00:02:55;22.75;55.27
54540;SHT30;40438;52.992;18.604;2023-08-17T00:05:20;22.72;55.29
54540;SHT30;40438;52.992;18.604;2023-08-17T00:07:46;22.77;55.24
54540;SHT30;40438;52.992;18.604;2023-08-17T00:10:12;22.78;55.22
54540;SHT30;40438;52.992;18.604;2023-08-17T00:12:39;22.75;55.23
54540;SHT30;40438;52.992;18.604;2023-08-17T00:15:06;22.78;55.35
54540;SHT30;40438;52.992;18.604;2023-08-17T00:17:32;22.65;55.35
54540;SHT30;40438;52.992;18.604;2023-08-17T00:19:57;22.64;55.59
54540;SHT30;40438;52.992;18.604;2023-08-17T00:22:23;22.65;55.65
54540;SHT30;40438;52.992;18.604;2023-08-17T00:24:49;22.61;55.91
54540;SHT30;40438;52.992;18.604;2023-08-17T00:27:15;22.65;55.83
54540;SHT30;40438;52.992;18.604;2023-08-17T00:29:44;22.69;55.87
54540;SHT30;40438;52.992;18.604;2023-08-17T00:32:09;22.67;55.94
54540;SHT30;40438;52.992;18.604;2023-08-17T00:34:35;22.60;56.22
54540;SHT30;40438;52.992;18.604;2023-08-17T00:37:01;22.60;56.05
54540;SHT30;40438;52.992;18.604;2023-08-17T00:39:27;22.63;56.09
54540;SHT30;40438;52.992;18.604;2023-08-17T00:41:52;22.51;56.32
54540;SHT30;40438;52.992;18.604;2023-08-17T00:44:18;22.48;56.53
54540;SHT30;40438;52.992;18.604;2023-08-17T00:46:48;22.53;56.44
54540;SHT30;40438;52.992;18.604;2023-08-17T00:49:14;22.53;56.58
54540;SHT30;40438;52.992;18.604;2023-08-17T00:51:40;22.44;56.72
54540;SHT30;40438;52.992;18.604;2023-08-17T00:54:06;22.43;56.89
54540;SHT30;40438;52.992;18.604;2023-08-17T00:56:32;22.44;56.97
54540;SHT30;40438;52.992;18.604;2023-08-17T00:58:58;22.43;57.01
54540;SHT30;40438;52.992;18.604;2023-08-17T01:01:24;22.40;57.26
54540;SHT30;40438;52.992;18.604;2023-08-17T01:03:52;22.40;57.18
54540;SHT30;40438;52.992;18.604;2023-08-17T01:06:18;22.44;57.13
54540;SHT30;40438;52.992;18.604;2023-08-17T01:08:45;22.40;57.40
54540;SHT30;40438;52.992;18.604;2023-08-17T01:11:16;22.44;57.31
54540;SHT30;40438;52.992;18.604;2023-08-17T01:13:46;22.43;57.47
54540;SHT30;40438;52.992;18.604;2023-08-17T01:16:18;22.47;57.52
54540;SHT30;40438;52.992;18.604;2023-08-17T01:18:46;22.44;57.56
54540;SHT30;40438;52.992;18.604;2023-08-17T01:21:17;22.50;57.66
54540;SHT30;40438;52.992;18.604;2023-08-17T01:23:46;22.50;57.74
54540;SHT30;40438;52.992;18.604;2023-08-17T01:26:11;22.45;57.87
54540;SHT30;40438;52.992;18.604;2023-08-17T01:28:37;22.53;58.04
54540;SHT30;40438;52.992;18.604;2023-08-17T01:31:10;22.45;58.55
54540;SHT30;40438;52.992;18.604;2023-08-17T01:33:40;22.44;59.46
54540;SHT30;40438;52.992;18.604;2023-08-17T01:36:16;22.40;59.60
54540;SHT30;40438;52.992;18.604;2023-08-17T01:38:46;22.43;59.76
54540;SHT30;40438;52.992;18.604;2023-08-17T01:41:13;22.38;59.95
54540;SHT30;40438;52.992;18.604;2023-08-17T01:43:41;22.37;59.93
54540;SHT30;40438;52.992;18.604;2023-08-17T01:46:07;22.34;60.48
54540;SHT30;40438;52.992;18.604;2023-08-17T01:48:33;22.31;61.64
54540;SHT30;40438;52.992;18.604;2023-08-17T01:50:59;22.21;62.72
54540;SHT30;40438;52.992;18.604;2023-08-17T01:53:25;22.13;63.81
54540;SHT30;40438;52.992;18.604;2023-08-17T01:55:52;22.08;63.91
54540;SHT30;40438;52.992;18.604;2023-08-17T01:58:18;21.99;65.22
54540;SHT30;40438;52.992;18.604;2023-08-17T02:00:43;21.93;65.84
54540;SHT30;40438;52.992;18.604;2023-08-17T02:03:09;21.82;66.17
54540;SHT30;40438;52.992;18.604;2023-08-17T02:05:35;21.71;66.79
54540;SHT30;40438;52.992;18.604;2023-08-17T02:08:01;21.65;66.99
54540;SHT30;40438;52.992;18.604;2023-08-17T02:10:27;21.62;67.17
54540;SHT30;40438;52.992;18.604;2023-08-17T02:12:55;21.54;67.32
54540;SHT30;40438;52.992;18.604;2023-08-17T02:15:21;21.51;67.16
54540;SHT30;40438;52.992;18.604;2023-08-17T02:17:46;21.45;67.29
54540;SHT30;40438;52.992;18.604;2023-08-17T02:20:12;21.37;67.28
54540;SHT30;40438;52.992;18.604;2023-08-17T02:22:38;21.40;66.91
54540;SHT30;40438;52.992;18.604;2023-08-17T02:25:05;21.31;67.24
54540;SHT30;40438;52.992;18.604;2023-08-17T02:27:31;21.31;67.25
54540;SHT30;40438;52.992;18.604;2023-08-17T02:29:58;21.26;67.33
54540;SHT30;40438;52.992;18.604;2023-08-17T02:32:24;21.28;67.53
54540;SHT30;40438;52.992;18.604;2023-08-17T02:34:50;21.31;66.97
54540;SHT30;40438;52.992;18.604;2023-08-17T02:37:15;21.31;66.79
54540;SHT30;40438;52.992;18.604;2023-08-17T02:39:41;21.28;66.41
54540;SHT30;40438;52.992;18.604;2023-08-17T02:42:07;21.32;66.42
54540;SHT30;40438;52.992;18.604;2023-08-17T02:44:33;21.35;66.31
54540;SHT30;40438;52.992;18.604;2023-08-17T02:47:00;21.32;66.41
54540;SHT30;40438;52.992;18.604;2023-08-17T02:49:27;21.37;66.52
54540;SHT30;40438;52.992;18.604;2023-08-17T02:51:52;21.37;66.45
54540;SHT30;40438;52.992;18.604;2023-08-17T02:54:18;21.37;66.22
54540;SHT30;40438;52.992;18.604;2023-08-17T02:56:44;21.35;66.24
54540;SHT30;40438;52.992;18.604;2023-08-17T02:59:10;21.37;66.19
54540;SHT30;40438;52.992;18.604;2023-08-17T03:01:35;21.35;66.03
54540;SHT30;40438;52.992;18.604;2023-08-17T03:04:03;21.35;66.55
54540;SHT30;40438;52.992;18.604;2023-08-17T03:06:29;21.32;66.52
54540;SHT30;40438;52.992;18.604;2023-08-17T03:08:55;21.34;66.32
54540;SHT30;40438;52.992;18.604;2023-08-17T03:11:21;21.30;66.42
54540;SHT30;40438;52.992;18.604;2023-08-17T03:13:47;21.34;66.43
54540;SHT30;40438;52.992;18.604;2023-08-17T03:16:12;21.32;66.41
54540;SHT30;40438;52.992;18.604;2023-08-17T03:18:38;21.35;66.17
54540;SHT30;40438;52.992;18.604;2023-08-17T03:21:08;21.32;66.18
54540;SHT30;40438;52.992;18.604;2023-08-17T03:23:34;21.35;66.11
54540;SHT30;40438;52.992;18.604;2023-08-17T03:25:59;21.32;66.12
54540;SHT30;40438;52.992;18.604;2023-08-17T03:28:27;21.37;66.20
54540;SHT30;40438;52.992;18.604;2023-08-17T03:30:55;21.35;66.21
54540;SHT30;40438;52.992;18.604;2023-08-17T03:33:20;21.32;66.31
54540;SHT30;40438;52.992;18.604;2023-08-17T03:35:46;21.30;66.41
54540;SHT30;40438;52.992;18.604;2023-08-17T03:38:14;21.32;66.02
54540;SHT30;40438;52.992;18.604;2023-08-17T03:40:40;21.35;66.02
54540;SHT30;40438;52.992;18.604;2023-08-17T03:43:06;21.34;65.75
54540;SHT30;40438;52.992;18.604;2023-08-17T03:45:32;21.37;66.15
54540;SHT30;40438;52.992;18.604;2023-08-17T03:47:58;21.40;66.18
54540;SHT30;40438;52.992;18.604;2023-08-17T03:50:27;21.42;66.05
54540;SHT30;40438;52.992;18.604;2023-08-17T03:52:53;21.35;66.38
54540;SHT30;40438;52.992;18.604;2023-08-17T03:55:20;21.35;66.28
54540;SHT30;40438;52.992;18.604;2023-08-17T03:57:46;21.34;65.77
54540;SHT30;40438;52.992;18.604;2023-08-17T04:00:13;21.35;65.68
54540;SHT30;40438;52.992;18.604;2023-08-17T04:02:41;21.38;65.81
54540;SHT30;40438;52.992;18.604;2023-08-17T04:05:10;21.38;65.85
54540;SHT30;40438;52.992;18.604;2023-08-17T04:07:36;21.38;65.39
54540;SHT30;40438;52.992;18.604;2023-08-17T04:10:04;21.40;65.45
54540;SHT30;40438;52.992;18.604;2023-08-17T04:12:32;21.41;65.34
54540;SHT30;40438;52.992;18.604;2023-08-17T04:14:58;21.44;65.16
54540;SHT30;40438;52.992;18.604;2023-08-17T04:17:25;21.47;65.37
54540;SHT30;40438;52.992;18.604;2023-08-17T04:19:51;21.49;65.19
54540;SHT30;40438;52.992;18.604;2023-08-17T04:22:17;21.48;65.31
54540;SHT30;40438;52.992;18.604;2023-08-17T04:24:43;21.48;65.64
54540;SHT30;40438;52.992;18.604;2023-08-17T04:27:08;21.47;65.30
54540;SHT30;40438;52.992;18.604;2023-08-17T04:29:36;21.42;65.43
54540;SHT30;40438;52.992;18.604;2023-08-17T04:32:03;21.41;65.30
54540;SHT30;40438;52.992;18.604;2023-08-17T04:34:29;21.47;65.13
54540;SHT30;40438;52.992;18.604;2023-08-17T04:36:55;21.47;65.30
54540;SHT30;40438;52.992;18.604;2023-08-17T04:39:21;21.47;65.39
54540;SHT30;40438;52.992;18.604;2023-08-17T04:41:47;21.37;66.27
54540;SHT30;40438;52.992;18.604;2023-08-17T04:44:18;21.35;67.86
54540;SHT30;40438;52.992;18.604;2023-08-17T04:46:45;21.28;68.79
54540;SHT30;40438;52.992;18.604;2023-08-17T04:49:11;21.20;68.96
54540;SHT30;40438;52.992;18.604;2023-08-17T04:51:37;21.18;69.03
54540;SHT30;40438;52.992;18.604;2023-08-17T04:54:03;21.11;69.14
54540;SHT30;40438;52.992;18.604;2023-08-17T04:56:29;21.08;69.08
54540;SHT30;40438;52.992;18.604;2023-08-17T04:58:54;21.10;68.96
54540;SHT30;40438;52.992;18.604;2023-08-17T05:01:20;21.04;68.97
54540;SHT30;40438;52.992;18.604;2023-08-17T05:03:48;21.04;68.75
54540;SHT30;40438;52.992;18.604;2023-08-17T05:06:14;21.08;68.99
54540;SHT30;40438;52.992;18.604;2023-08-17T05:08:40;21.13;68.82
54540;SHT30;40438;52.992;18.604;2023-08-17T05:11:05;21.17;68.61
54540;SHT30;40438;52.992;18.604;2023-08-17T05:13:31;21.26;68.08
54540;SHT30;40438;52.992;18.604;2023-08-17T05:16:01;21.32;67.52
54540;SHT30;40438;52.992;18.604;2023-08-17T05:18:28;21.38;67.31
54540;SHT30;40438;52.992;18.604;2023-08-17T05:20:55;21.49;66.81
54540;SHT30;40438;52.992;18.604;2023-08-17T05:23:21;21.51;65.72
54540;SHT30;40438;52.992;18.604;2023-08-17T05:25:47;21.55;65.25
54540;SHT30;40438;52.992;18.604;2023-08-17T05:28:13;21.47;65.54
54540;SHT30;40438;52.992;18.604;2023-08-17T05:30:39;21.47;65.59
54540;SHT30;40438;52.992;18.604;2023-08-17T05:33:05;21.41;66.15
54540;SHT30;40438;52.992;18.604;2023-08-17T05:35:32;21.45;66.23
54540;SHT30;40438;52.992;18.604;2023-08-17T05:37:59;21.47;66.09
54540;SHT30;40438;52.992;18.604;2023-08-17T05:40:25;21.51;66.17
54540;SHT30;40438;52.992;18.604;2023-08-17T05:42:51;21.55;66.26
54540;SHT30;40438;52.992;18.604;2023-08-17T05:45:17;21.57;66.13
54540;SHT30;40438;52.992;18.604;2023-08-17T05:47:42;21.61;66.00
54540;SHT30;40438;52.992;18.604;2023-08-17T05:50:08;21.68;65.83
54540;SHT30;40438;52.992;18.604;2023-08-17T05:52:34;21.75;65.96
54540;SHT30;40438;52.992;18.604;2023-08-17T05:55:02;21.72;66.05
54540;SHT30;40438;52.992;18.604;2023-08-17T05:57:28;21.72;66.38
54540;SHT30;40438;52.992;18.604;2023-08-17T05:59:53;21.78;66.61
54540;SHT30;40438;52.992;18.604;2023-08-17T06:02:19;21.80;66.92
54540;SHT30;40438;52.992;18.604;2023-08-17T06:04:47;21.89;66.83
54540;SHT30;40438;52.992;18.604;2023-08-17T06:07:13;21.88;67.13
54540;SHT30;40438;52.992;18.604;2023-08-17T06:09:39;21.85;67.51
54540;SHT30;40438;52.992;18.604;2023-08-17T06:12:06;21.92;67.44
54540;SHT30;40438;52.992;18.604;2023-08-17T06:14:33;21.96;67.44
54540;SHT30;40438;52.992;18.604;2023-08-17T06:16:59;21.96;67.45
54540;SHT30;40438;52.992;18.604;2023-08-17T06:19:25;21.96;67.40
54540;SHT30;40438;52.992;18.604;2023-08-17T06:21:51;21.99;67.37
54540;SHT30;40438;52.992;18.604;2023-08-17T06:24:16;22.03;67.30
54540;SHT30;40438;52.992;18.604;2023-08-17T06:26:43;22.08;67.36
54540;SHT30;40438;52.992;18.604;2023-08-17T06:29:10;22.10;67.10
54540;SHT30;40438;52.992;18.604;2023-08-17T06:31:36;22.16;66.94
54540;SHT30;40438;52.992;18.604;2023-08-17T06:34:01;22.13;67.26
54540;SHT30;40438;52.992;18.604;2023-08-17T06:36:30;22.19;67.08
54540;SHT30;40438;52.992;18.604;2023-08-17T06:38:56;22.24;66.92
54540;SHT30;40438;52.992;18.604;2023-08-17T06:41:22;22.20;67.12
54540;SHT30;40438;52.992;18.604;2023-08-17T06:43:48;22.24;67.16
54540;SHT30;40438;52.992;18.604;2023-08-17T06:46:15;22.19;67.34
54540;SHT30;40438;52.992;18.604;2023-08-17T06:48:42;22.16;67.74
54540;SHT30;40438;52.992;18.604;2023-08-17T06:51:07;22.21;67.98
54540;SHT30;40438;52.992;18.604;2023-08-17T06:53:33;22.20;68.34
54540;SHT30;40438;52.992;18.604;2023-08-17T06:55:59;22.27;67.63
54540;SHT30;40438;52.992;18.604;2023-08-17T06:58:25;22.29;67.57
54540;SHT30;40438;52.992;18.604;2023-08-17T07:00:51;22.34;67.40
54540;SHT30;40438;52.992;18.604;2023-08-17T07:03:18;22.37;67.52
54540;SHT30;40438;52.992;18.604;2023-08-17T07:05:44;22.41;67.04
54540;SHT30;40438;52.992;18.604;2023-08-17T07:08:09;22.47;66.79
54540;SHT30;40438;52.992;18.604;2023-08-17T07:10:35;22.54;66.90
54540;SHT30;40438;52.992;18.604;2023-08-17T07:13:01;22.63;66.18
54540;SHT30;40438;52.992;18.604;2023-08-17T07:15:27;22.71;65.91
54540;SHT30;40438;52.992;18.604;2023-08-17T07:17:53;22.81;65.81
54540;SHT30;40438;52.992;18.604;2023-08-17T07:20:20;22.95;65.57
54540;SHT30;40438;52.992;18.604;2023-08-17T07:22:46;23.06;65.49
54540;SHT30;40438;52.992;18.604;2023-08-17T07:25:11;23.19;64.98
54540;SHT30;40438;52.992;18.604;2023-08-17T07:27:37;23.37;64.39
54540;SHT30;40438;52.992;18.604;2023-08-17T07:30:04;23.46;62.88
54540;SHT30;40438;52.992;18.604;2023-08-17T07:32:30;23.58;62.39
54540;SHT30;40438;52.992;18.604;2023-08-17T07:34:55;23.80;61.96
54540;SHT30;40438;52.992;18.604;2023-08-17T07:37:23;23.95;61.52
54540;SHT30;40438;52.992;18.604;2023-08-17T07:39:48;24.11;61.37
54540;SHT30;40438;52.992;18.604;2023-08-17T07:42:15;24.25;60.98
54540;SHT30;40438;52.992;18.604;2023-08-17T07:44:40;24.43;60.67
54540;SHT30;40438;52.992;18.604;2023-08-17T07:47:06;24.55;59.83
54540;SHT30;40438;52.992;18.604;2023-08-17T07:49:32;24.69;59.61
54540;SHT30;40438;52.992;18.604;2023-08-17T07:51:58;24.73;59.41
54540;SHT30;40438;52.992;18.604;2023-08-17T07:54:25;24.88;59.08
54540;SHT30;40438;52.992;18.604;2023-08-17T07:56:51;25.03;59.66
54540;SHT30;40438;52.992;18.604;2023-08-17T07:59:17;25.11;59.19
54540;SHT30;40438;52.992;18.604;2023-08-17T08:01:43;25.34;58.93
54540;SHT30;40438;52.992;18.604;2023-08-17T08:04:09;25.37;58.54
54540;SHT30;40438;52.992;18.604;2023-08-17T08:06:34;25.52;57.64
54540;SHT30;40438;52.992;18.604;2023-08-17T08:09:00;25.49;58.22
54540;SHT30;40438;52.992;18.604;2023-08-17T08:11:28;25.52;57.88
54540;SHT30;40438;52.992;18.604;2023-08-17T08:13:53;25.59;57.81
54540;SHT30;40438;52.992;18.604;2023-08-17T08:16:19;25.54;57.73
54540;SHT30;40438;52.992;18.604;2023-08-17T08:18:45;25.61;57.93
54540;SHT30;40438;52.992;18.604;2023-08-17T08:21:11;25.73;57.72
54540;SHT30;40438;52.992;18.604;2023-08-17T08:23:37;25.73;57.49
54540;SHT30;40438;52.992;18.604;2023-08-17T08:26:02;25.90;57.14
54540;SHT30;40438;52.992;18.604;2023-08-17T08:28:30;25.90;56.96
54540;SHT30;40438;52.992;18.604;2023-08-17T08:30:59;25.96;56.93
54540;SHT30;40438;52.992;18.604;2023-08-17T08:33:26;26.02;57.24
54540;SHT30;40438;52.992;18.604;2023-08-17T08:35:52;26.13;57.31
54540;SHT30;40438;52.992;18.604;2023-08-17T08:38:18;26.29;56.07
54540;SHT30;40438;52.992;18.604;2023-08-17T08:40:44;26.41;55.92
54540;SHT30;40438;52.992;18.604;2023-08-17T08:43:12;26.48;56.55
54540;SHT30;40438;52.992;18.604;2023-08-17T08:45:41;26.55;56.22
54540;SHT30;40438;52.992;18.604;2023-08-17T08:48:08;26.64;56.49
54540;SHT30;40438;52.992;18.604;2023-08-17T08:50:36;26.69;56.28
54540;SHT30;40438;52.992;18.604;2023-08-17T08:53:03;26.69;55.59
54540;SHT30;40438;52.992;18.604;2023-08-17T08:55:31;26.77;55.54
54540;SHT30;40438;52.992;18.604;2023-08-17T08:57:59;26.79;55.12
54540;SHT30;40438;52.992;18.604;2023-08-17T09:00:26;26.84;55.33
54540;SHT30;40438;52.992;18.604;2023-08-17T09:02:54;26.89;55.63
54540;SHT30;40438;52.992;18.604;2023-08-17T09:05:21;26.98;55.05
54540;SHT30;40438;52.992;18.604;2023-08-17T09:07:48;27.03;54.94
54540;SHT30;40438;52.992;18.604;2023-08-17T09:10:14;27.18;54.87
54540;SHT30;40438;52.992;18.604;2023-08-17T09:12:40;27.33;54.23
54540;SHT30;40438;52.992;18.604;2023-08-17T09:15:06;27.31;54.49
54540;SHT30;40438;52.992;18.604;2023-08-17T09:17:32;27.26;54.55
54540;SHT30;40438;52.992;18.604;2023-08-17T09:19:59;27.18;54.84
54540;SHT30;40438;52.992;18.604;2023-08-17T09:22:36;27.13;54.86
54540;SHT30;40438;52.992;18.604;2023-08-17T09:25:02;27.02;54.86
54540;SHT30;40438;52.992;18.604;2023-08-17T09:27:28;27.02;55.06
54540;SHT30;40438;52.992;18.604;2023-08-17T09:30:01;27.03;55.25
54540;SHT30;40438;52.992;18.604;2023-08-17T09:32:30;27.10;54.94
54540;SHT30;40438;52.992;18.604;2023-08-17T09:34:55;27.16;55.19
54540;SHT30;40438;52.992;18.604;2023-08-17T09:37:23;27.26;54.55
54540;SHT30;40438;52.992;18.604;2023-08-17T09:39:48;27.24;54.63
54540;SHT30;40438;52.992;18.604;2023-08-17T09:42:14;27.29;54.96
54540;SHT30;40438;52.992;18.604;2023-08-17T09:44:40;27.67;53.74
54540;SHT30;40438;52.992;18.604;2023-08-17T09:47:07;27.78;53.17
54540;SHT30;40438;52.992;18.604;2023-08-17T09:49:33;28.07;52.87
54540;SHT30;40438;52.992;18.604;2023-08-17T09:51:59;28.43;52.36
54540;SHT30;40438;52.992;18.604;2023-08-17T09:54:27;28.57;51.67
54540;SHT30;40438;52.992;18.604;2023-08-17T09:56:53;28.67;51.72
54540;SHT30;40438;52.992;18.604;2023-08-17T09:59:19;28.82;51.24
54540;SHT30;40438;52.992;18.604;2023-08-17T10:01:48;28.86;51.35
54540;SHT30;40438;52.992;18.604;2023-08-17T10:04:16;28.97;51.03
54540;SHT30;40438;52.992;18.604;2023-08-17T10:06:44;29.07;50.36
54540;SHT30;40438;52.992;18.604;2023-08-17T10:09:13;29.39;49.90
54540;SHT30;40438;52.992;18.604;2023-08-17T10:11:43;29.52;50.10
54540;SHT30;40438;52.992;18.604;2023-08-17T10:14:15;29.46;49.86
54540;SHT30;40438;52.992;18.604;2023-08-17T10:16:44;29.49;49.44
54540;SHT30;40438;52.992;18.604;2023-08-17T10:19:15;29.77;48.97
54540;SHT30;40438;52.992;18.604;2023-08-17T10:21:48;29.75;49.36
54540;SHT30;40438;52.992;18.604;2023-08-17T10:24:14;29.83;49.65
54540;SHT30;40438;52.992;18.604;2023-08-17T10:26:42;30.00;48.81
54540;SHT30;40438;52.992;18.604;2023-08-17T10:29:08;29.97;48.59
54540;SHT30;40438;52.992;18.604;2023-08-17T10:31:34;29.92;48.81
54540;SHT30;40438;52.992;18.604;2023-08-17T10:34:00;29.94;48.83
54540;SHT30;40438;52.992;18.604;2023-08-17T10:36:27;30.07;49.06
54540;SHT30;40438;52.992;18.604;2023-08-17T10:39:17;30.25;48.69
54540;SHT30;40438;52.992;18.604;2023-08-17T10:41:48;30.47;47.88
54540;SHT30;40438;52.992;18.604;2023-08-17T10:44:14;30.79;47.83
54540;SHT30;40438;52.992;18.604;2023-08-17T10:46:40;30.78;47.87
54540;SHT30;40438;52.992;18.604;2023-08-17T10:49:24;30.75;46.84
54540;SHT30;40438;52.992;18.604;2023-08-17T10:52:00;30.69;46.85
54540;SHT30;40438;52.992;18.604;2023-08-17T10:54:36;30.83;47.15
54540;SHT30;40438;52.992;18.604;2023-08-17T10:57:24;30.83;47.18
54540;SHT30;40438;52.992;18.604;2023-08-17T11:00:05;30.76;46.97
54540;SHT30;40438;52.992;18.604;2023-08-17T11:02:32;30.99;47.42
54540;SHT30;40438;52.992;18.604;2023-08-17T11:04:57;31.22;46.74
54540;SHT30;40438;52.992;18.604;2023-08-17T11:07:23;31.40;46.45
54540;SHT30;40438;52.992;18.604;2023-08-17T11:09:49;31.56;46.01
54540;SHT30;40438;52.992;18.604;2023-08-17T11:12:26;31.81;45.77
54540;SHT30;40438;52.992;18.604;2023-08-17T11:14:52;31.89;44.67
54540;SHT30;40438;52.992;18.604;2023-08-17T11:17:20;31.87;44.96
54540;SHT30;40438;52.992;18.604;2023-08-17T11:19:46;32.01;44.88
54540;SHT30;40438;52.992;18.604;2023-08-17T11:22:12;32.01;44.38
54540;SHT30;40438;52.992;18.604;2023-08-17T11:24:38;32.24;44.13
54540;SHT30;40438;52.992;18.604;2023-08-17T11:27:04;32.32;43.99
54540;SHT30;40438;52.992;18.604;2023-08-17T11:29:33;32.49;43.64
54540;SHT30;40438;52.992;18.604;2023-08-17T11:31:59;32.77;43.36
54540;SHT30;40438;52.992;18.604;2023-08-17T11:34:24;32.94;42.90
54540;SHT30;40438;52.992;18.604;2023-08-17T11:36:50;33.07;42.82
54540;SHT30;40438;52.992;18.604;2023-08-17T11:39:16;33.15;42.64
54540;SHT30;40438;52.992;18.604;2023-08-17T11:41:42;33.28;42.09
54540;SHT30;40438;52.992;18.604;2023-08-17T11:44:08;33.45;41.98
54540;SHT30;40438;52.992;18.604;2023-08-17T11:46:35;33.61;41.74
54540;SHT30;40438;52.992;18.604;2023-08-17T11:49:01;33.78;41.36
54540;SHT30;40438;52.992;18.604;2023-08-17T11:51:30;33.88;40.90
54540;SHT30;40438;52.992;18.604;2023-08-17T11:53:58;34.05;40.87
54540;SHT30;40438;52.992;18.604;2023-08-17T11:56:24;33.96;40.89
54540;SHT30;40438;52.992;18.604;2023-08-17T11:58:50;34.05;40.32
54540;SHT30;40438;52.992;18.604;2023-08-17T12:01:16;34.17;40.27
54540;SHT30;40438;52.992;18.604;2023-08-17T12:03:43;34.40;40.27
54540;SHT30;40438;52.992;18.604;2023-08-17T12:06:10;34.49;40.04
54540;SHT30;40438;52.992;18.604;2023-08-17T12:08:36;34.60;39.96
54540;SHT30;40438;52.992;18.604;2023-08-17T12:11:02;34.68;39.75
54540;SHT30;40438;52.992;18.604;2023-08-17T12:13:32;34.78;39.62
54540;SHT30;40438;52.992;18.604;2023-08-17T12:15:59;34.71;39.38
54540;SHT30;40438;52.992;18.604;2023-08-17T12:18:25;34.64;39.48
54540;SHT30;40438;52.992;18.604;2023-08-17T12:20:53;34.86;39.19
54540;SHT30;40438;52.992;18.604;2023-08-17T12:23:19;34.78;39.26
54540;SHT30;40438;52.992;18.604;2023-08-17T12:25:46;34.60;39.53
54540;SHT30;40438;52.992;18.604;2023-08-17T12:28:17;34.68;39.61
54540;SHT30;40438;52.992;18.604;2023-08-17T12:30:43;34.53;39.96
54540;SHT30;40438;52.992;18.604;2023-08-17T12:33:09;34.30;40.29
54540;SHT30;40438;52.992;18.604;2023-08-17T12:35:34;34.33;40.22
54540;SHT30;40438;52.992;18.604;2023-08-17T12:38:02;33.91;40.81
54540;SHT30;40438;52.992;18.604;2023-08-17T12:40:28;33.72;41.19
54540;SHT30;40438;52.992;18.604;2023-08-17T12:42:53;33.79;41.28
54540;SHT30;40438;52.992;18.604;2023-08-17T12:45:19;33.95;41.25
54540;SHT30;40438;52.992;18.604;2023-08-17T12:47:45;34.20;40.90
54540;SHT30;40438;52.992;18.604;2023-08-17T12:50:11;34.40;40.29
54540;SHT30;40438;52.992;18.604;2023-08-17T12:52:37;34.56;39.84
54540;SHT30;40438;52.992;18.604;2023-08-17T12:55:05;34.53;39.70
54540;SHT30;40438;52.992;18.604;2023-08-17T12:57:30;34.60;39.86
54540;SHT30;40438;52.992;18.604;2023-08-17T12:59:56;34.58;39.88
54540;SHT30;40438;52.992;18.604;2023-08-17T13:02:23;34.51;39.91
54540;SHT30;40438;52.992;18.604;2023-08-17T13:04:48;34.44;40.16
54540;SHT30;40438;52.992;18.604;2023-08-17T13:07:14;34.30;40.37
54540;SHT30;40438;52.992;18.604;2023-08-17T13:09:40;34.19;40.70
54540;SHT30;40438;52.992;18.604;2023-08-17T13:12:07;34.17;40.97
54540;SHT30;40438;52.992;18.604;2023-08-17T13:14:33;34.15;40.34
54540;SHT30;40438;52.992;18.604;2023-08-17T13:16:59;34.10;40.88
54540;SHT30;40438;52.992;18.604;2023-08-17T13:19:25;33.98;41.28
54540;SHT30;40438;52.992;18.604;2023-08-17T13:21:51;33.95;41.86
54540;SHT30;40438;52.992;18.604;2023-08-17T13:24:16;33.83;41.81
54540;SHT30;40438;52.992;18.604;2023-08-17T13:26:42;33.73;41.84
54540;SHT30;40438;52.992;18.604;2023-08-17T13:29:09;33.57;42.09
54540;SHT30;40438;52.992;18.604;2023-08-17T13:31:35;33.28;42.40
54540;SHT30;40438;52.992;18.604;2023-08-17T13:34:01;33.17;42.83
54540;SHT30;40438;52.992;18.604;2023-08-17T13:36:27;33.03;42.99
54540;SHT30;40438;52.992;18.604;2023-08-17T13:38:52;32.90;43.48
54540;SHT30;40438;52.992;18.604;2023-08-17T13:41:18;32.82;43.56
54540;SHT30;40438;52.992;18.604;2023-08-17T13:43:44;32.66;43.65
54540;SHT30;40438;52.992;18.604;2023-08-17T13:46:12;32.53;44.12
54540;SHT30;40438;52.992;18.604;2023-08-17T13:48:37;32.46;44.47
54540;SHT30;40438;52.992;18.604;2023-08-17T13:51:03;32.49;44.54
54540;SHT30;40438;52.992;18.604;2023-08-17T13:53:29;32.48;44.32
54540;SHT30;40438;52.992;18.604;2023-08-17T13:55:55;32.48;44.71
54540;SHT30;40438;52.992;18.604;2023-08-17T13:58:20;32.43;44.89
54540;SHT30;40438;52.992;18.604;2023-08-17T14:00:46;32.53;44.64
54540;SHT30;40438;52.992;18.604;2023-08-17T14:03:13;32.59;44.40
54540;SHT30;40438;52.992;18.604;2023-08-17T14:05:39;32.83;43.96
54540;SHT30;40438;52.992;18.604;2023-08-17T14:08:05;33.03;43.72
54540;SHT30;40438;52.992;18.604;2023-08-17T14:10:31;33.25;43.32
54540;SHT30;40438;52.992;18.604;2023-08-17T14:12:57;33.51;42.64
54540;SHT30;40438;52.992;18.604;2023-08-17T14:15:22;33.72;42.79
54540;SHT30;40438;52.992;18.604;2023-08-17T14:17:48;33.93;41.63
54540;SHT30;40438;52.992;18.604;2023-08-17T14:20:15;33.95;41.59
54540;SHT30;40438;52.992;18.604;2023-08-17T14:22:41;34.03;41.74
54540;SHT30;40438;52.992;18.604;2023-08-17T14:25:07;34.13;41.64
54540;SHT30;40438;52.992;18.604;2023-08-17T14:27:33;34.27;41.54
54540;SHT30;40438;52.992;18.604;2023-08-17T14:29:59;34.26;41.23
54540;SHT30;40438;52.992;18.604;2023-08-17T14:32:24;34.37;40.94
54540;SHT30;40438;52.992;18.604;2023-08-17T14:34:50;34.36;40.75
54540;SHT30;40438;52.992;18.604;2023-08-17T14:37:17;34.46;40.63
54540;SHT30;40438;52.992;18.604;2023-08-17T14:39:43;34.47;40.70
54540;SHT30;40438;52.992;18.604;2023-08-17T14:42:09;34.49;40.66
54540;SHT30;40438;52.992;18.604;2023-08-17T14:44:34;34.51;40.60
54540;SHT30;40438;52.992;18.604;2023-08-17T14:47:00;34.47;40.73
54540;SHT30;40438;52.992;18.604;2023-08-17T14:49:26;34.44;40.76
54540;SHT30;40438;52.992;18.604;2023-08-17T14:51:52;34.39;40.81
54540;SHT30;40438;52.992;18.604;2023-08-17T14:54:19;34.33;40.87
54540;SHT30;40438;52.992;18.604;2023-08-17T14:56:45;34.32;41.13
54540;SHT30;40438;52.992;18.604;2023-08-17T14:59:10;34.32;41.03
54540;SHT30;40438;52.992;18.604;2023-08-17T15:01:36;34.24;41.23
54540;SHT30;40438;52.992;18.604;2023-08-17T15:04:02;34.29;40.65
54540;SHT30;40438;52.992;18.604;2023-08-17T15:06:28;34.23;40.94
54540;SHT30;40438;52.992;18.604;2023-08-17T15:08:54;34.19;41.41
54540;SHT30;40438;52.992;18.604;2023-08-17T15:11:21;34.15;41.49